Nord Imagination — 3FIA8 — position and weather

sailwx.info

Track history (hours):
 
Tides and Currents Weather Stations Pressure Air Temp Water Temp Dewpoint Dewpoint Depression Visibility Wind Speed Wind Dir Waves Ship Positions

Nord Imagination

Last reported at 2016-Jun-25 22:31 UTC. Time now 2016-Jun-30 12:22 UTC.
Position N 09°54' W 079°43'.

Length 179 m; draft 7.4 m.

Type: Ship (hazmat cat B). MMSI: 354828000.

Date/timePositionNaut miles runAvg speedWind from/ knotsBaromVisibWave heightAir tempDewpointWater temp
2016-Jun-25 22:31N 09°54' W 079°43'1313.1
2016-Jun-25 21:33N 09°42' W 079°43'1413.5
2016-Jun-25 20:33N 09°31' W 079°52'1111.2
2016-Jun-25 19:33N 09°21' W 079°55'4 4.2
2016-Jun-25 18:33N 09°17' W 079°55'1 0.6
2016-Jun-25 17:33N 09°16' W 079°55'1 1.0
2016-Jun-25 16:33N 09°15' W 079°55'5 5.1
2016-Jun-25 15:33N 09°11' W 079°52'9 8.5
2016-Jun-25 14:31N 09°07' W 079°44'7 6.5
2016-Jun-25 13:31N 09°03' W 079°39'14 2.0
2016-Jun-25 06:10N 08°51' W 079°31'0 0.0
2016-Jun-25 03:11N 08°51' W 079°31'0 0.0
2016-Jun-24 23:26N 08°51' W 079°31'0 0.0
2016-Jun-24 22:33N 08°51' W 079°31'0 0.0
2016-Jun-24 21:26N 08°51' W 079°31'0 0.0
2016-Jun-24 19:24N 08°51' W 079°31'0 0.1
2016-Jun-24 17:32N 08°51' W 079°31'0 0.1
2016-Jun-24 09:29N 08°51' W 079°31'  
Track history (hours):
 
Tides and Currents Weather Stations Pressure Air Temp Water Temp Dewpoint Dewpoint Depression Visibility Wind Speed Wind Dir Waves Ship Positions

Nord Imagination

Last reported at 2016-Jun-25 22:31 UTC. Time now 2016-Jun-30 12:22 UTC.
Position N 09°54' W 079°43'.

Length 179 m; draft 7.4 m.

Type: Ship (hazmat cat B). MMSI: 354828000.

Date/timePositionNaut miles runAvg speedWind from/ knotsBaromVisibWave heightAir tempDewpointWater temp
2016-Jun-25 22:31N 09°54' W 079°43'1313.1
2016-Jun-25 21:33N 09°42' W 079°43'1413.5
2016-Jun-25 20:33N 09°31' W 079°52'1111.2
2016-Jun-25 19:33N 09°21' W 079°55'4 4.2
2016-Jun-25 18:33N 09°17' W 079°55'1 0.6
2016-Jun-25 17:33N 09°16' W 079°55'1 1.0
2016-Jun-25 16:33N 09°15' W 079°55'5 5.1
2016-Jun-25 15:33N 09°11' W 079°52'9 8.5
2016-Jun-25 14:31N 09°07' W 079°44'7 6.5
2016-Jun-25 13:31N 09°03' W 079°39'14 2.0
2016-Jun-25 06:10N 08°51' W 079°31'0 0.0
2016-Jun-25 03:11N 08°51' W 079°31'0 0.0
2016-Jun-24 23:26N 08°51' W 079°31'0 0.0
2016-Jun-24 22:33N 08°51' W 079°31'0 0.0
2016-Jun-24 21:26N 08°51' W 079°31'0 0.0
2016-Jun-24 19:24N 08°51' W 079°31'0 0.1
2016-Jun-24 17:32N 08°51' W 079°31'0 0.1
2016-Jun-24 09:29N 08°51' W 079°31'  

Dump ship's entire track history